createdAt,value
2023-02-11T00:07:40.436Z,8.43
2023-02-11T00:17:43.721Z,7.82
2023-02-11T00:27:45.652Z,7.93
2023-02-11T00:37:49.000Z,6.75
2023-02-11T00:47:50.945Z,7.07
2023-02-11T00:57:54.268Z,6.90
2023-02-11T01:07:56.256Z,6.65
2023-02-11T01:17:59.646Z,7.20
2023-02-11T01:28:01.604Z,7.82
2023-02-11T01:38:05.009Z,8.30
2023-02-11T01:48:07.788Z,8.63
2023-02-11T01:58:11.279Z,9.65
2023-02-11T02:08:19.397Z,9.70
2023-02-11T02:18:36.685Z,10.77
2023-02-11T02:29:06.142Z,10.57
2023-02-11T02:39:13.488Z,9.65
2023-02-11T02:49:16.744Z,9.75
2023-02-11T02:59:29.427Z,9.93
2023-02-11T03:09:37.831Z,10.88
2023-02-11T03:19:43.714Z,9.70
2023-02-11T03:29:52.096Z,9.27
2023-02-11T03:40:00.216Z,9.82
2023-02-11T03:50:04.541Z,11.43
2023-02-11T04:00:09.789Z,10.10
2023-02-11T04:10:12.795Z,9.98
2023-02-11T04:20:16.183Z,10.02
2023-02-11T04:30:18.316Z,9.55
2023-02-11T04:40:21.697Z,8.52
2023-02-11T04:50:23.649Z,9.02
2023-02-11T05:00:26.954Z,8.57
2023-02-11T05:10:28.900Z,7.13
2023-02-11T05:20:32.212Z,7.25
2023-02-11T05:30:34.177Z,7.57
2023-02-11T05:40:37.710Z,6.53
2023-02-11T05:50:39.737Z,7.07
2023-02-11T06:00:43.186Z,5.88
2023-02-11T06:10:45.576Z,6.18
2023-02-11T06:20:48.854Z,6.53
2023-02-11T06:30:50.895Z,4.95
2023-02-11T06:40:54.280Z,5.78
2023-02-11T06:50:56.248Z,5.35
2023-02-11T07:00:59.799Z,4.43
2023-02-11T07:11:01.950Z,4.68
2023-02-11T07:21:07.052Z,4.35
2023-02-11T07:31:10.337Z,5.15
2023-02-11T07:41:16.323Z,4.43
2023-02-11T07:51:20.013Z,3.85
2023-02-11T08:01:25.503Z,4.00
2023-02-11T08:11:28.976Z,3.67
2023-02-11T08:21:32.440Z,3.50
2023-02-11T08:31:37.362Z,2.83
2023-02-11T08:41:40.827Z,4.35
2023-02-11T08:51:43.696Z,2.55
2023-02-11T09:01:47.098Z,2.50
2023-02-11T09:11:49.167Z,1.98
2023-02-11T09:21:52.599Z,2.60
2023-02-11T09:31:54.748Z,1.58
2023-02-11T09:42:32.329Z,2.30
2023-02-11T09:52:41.040Z,2.00
2023-02-11T10:02:57.540Z,3.67
2023-02-11T10:13:23.051Z,1.45
2023-02-11T10:23:33.129Z,1.98
2023-02-11T10:33:42.476Z,2.65
2023-02-11T10:43:45.902Z,2.10
2023-02-11T10:53:48.892Z,2.90
2023-02-11T11:03:53.186Z,1.80
2023-02-11T11:13:57.825Z,1.85
2023-02-11T11:24:03.089Z,2.20
2023-02-11T11:34:21.895Z,1.90
2023-02-11T11:44:28.309Z,1.67
2023-02-11T11:54:33.988Z,2.17
2023-02-11T12:04:58.231Z,1.90
2023-02-11T12:15:13.481Z,2.00
2023-02-11T12:25:26.992Z,2.05
2023-02-11T12:35:39.372Z,2.47
2023-02-11T12:45:54.769Z,2.00
2023-02-11T12:56:01.516Z,2.10
2023-02-11T13:06:09.328Z,2.10
2023-02-11T13:16:20.818Z,2.50
2023-02-11T13:26:29.487Z,2.20
2023-02-11T13:36:32.066Z,2.78
2023-02-11T13:46:54.180Z,2.13
2023-02-11T13:57:29.832Z,2.22
2023-02-11T14:07:34.007Z,2.95
2023-02-11T14:17:36.190Z,2.65
2023-02-11T14:27:46.177Z,2.50
2023-02-11T14:37:58.440Z,2.28
2023-02-11T14:48:06.847Z,2.30
2023-02-11T14:58:14.155Z,2.55
2023-02-11T15:08:17.488Z,3.13
2023-02-11T15:18:22.542Z,2.60
2023-02-11T15:39:36.974Z,2.95
2023-02-11T15:59:47.979Z,3.63
2023-02-11T16:09:58.252Z,3.25
2023-02-11T16:20:01.695Z,3.17
2023-02-11T16:30:53.972Z,4.07
2023-02-11T16:40:57.491Z,2.95
2023-02-11T16:50:59.483Z,5.72
2023-02-11T17:01:02.950Z,4.22
2023-02-11T17:11:05.459Z,3.95
2023-02-11T17:21:09.110Z,4.90
2023-02-11T17:31:11.225Z,5.28
2023-02-11T17:41:14.665Z,4.68
2023-02-11T17:51:23.163Z,3.40
2023-02-11T18:01:28.725Z,4.30
2023-02-11T18:11:32.229Z,4.90
2023-02-11T18:21:35.561Z,4.60
2023-02-11T18:31:37.915Z,4.80
2023-02-11T18:41:41.304Z,6.00
2023-02-11T18:51:43.314Z,5.47
2023-02-11T19:01:46.604Z,10.95
2023-02-11T19:11:48.678Z,4.78
2023-02-11T19:21:52.111Z,4.57
2023-02-11T19:52:29.395Z,5.13
2023-02-11T20:12:49.312Z,7.55
2023-02-11T20:22:51.724Z,8.95
2023-02-11T20:32:55.134Z,7.95
2023-02-11T20:42:57.094Z,8.68
2023-02-11T20:53:00.462Z,8.52
2023-02-11T21:03:02.534Z,10.13
2023-02-11T21:13:05.942Z,8.43
2023-02-11T21:23:07.903Z,9.18
2023-02-11T21:33:11.440Z,8.70
2023-02-11T21:43:33.920Z,12.82
2023-02-11T21:53:37.586Z,10.70
2023-02-11T22:03:39.770Z,12.82
2023-02-11T22:13:43.205Z,11.10
2023-02-11T22:34:51.461Z,11.75
2023-02-11T22:44:54.872Z,10.20
2023-02-11T22:54:58.191Z,9.27
2023-02-11T23:05:00.238Z,12.40
2023-02-11T23:15:05.124Z,17.45
2023-02-11T23:25:07.517Z,11.52
2023-02-11T23:35:10.948Z,10.77
2023-02-11T23:56:28.726Z,11.32
